createdAt,value
2022-09-11T00:00:50.636Z,101016.03
2022-09-11T00:03:37.837Z,101009.34
2022-09-11T00:06:30.589Z,101004.38
2022-09-11T00:09:17.971Z,101002.28
2022-09-11T00:12:07.196Z,101011.91
2022-09-11T00:14:54.422Z,101013.19
2022-09-11T00:17:41.655Z,101021.19
2022-09-11T00:20:29.051Z,101013.25
2022-09-11T00:23:18.197Z,101011.81
2022-09-11T00:26:06.066Z,101015.34
2022-09-11T00:28:53.947Z,101011.38
2022-09-11T00:31:41.540Z,101000.94
2022-09-11T00:34:28.923Z,101008.91
2022-09-11T00:37:16.165Z,101012.06
2022-09-11T00:40:03.999Z,101013.16
2022-09-11T00:42:55.513Z,101013.78
2022-09-11T00:45:47.402Z,101018.38
2022-09-11T00:48:36.757Z,101013.34
2022-09-11T00:51:28.157Z,101024.47
2022-09-11T00:54:20.994Z,101035.56
2022-09-11T00:57:10.054Z,101032.84
2022-09-11T00:59:59.391Z,101033.91
2022-09-11T01:02:49.079Z,101037.03
2022-09-11T01:05:41.004Z,101038.94
2022-09-11T01:08:28.380Z,101037.22
2022-09-11T01:11:36.137Z,101040.13
2022-09-11T01:14:38.317Z,101040.56
2022-09-11T01:17:47.193Z,101036.75
2022-09-11T01:20:50.589Z,101042.22
2022-09-11T01:24:02.314Z,101047.25
2022-09-11T01:27:01.867Z,101049.75
2022-09-11T01:29:57.932Z,101053.56
2022-09-11T01:33:03.075Z,101048.31
2022-09-11T01:36:02.113Z,101055.88
2022-09-11T01:38:56.499Z,101060.25
2022-09-11T01:41:57.037Z,101069.09
2022-09-11T01:44:52.993Z,101068.63
2022-09-11T01:47:42.590Z,101064.00
2022-09-11T01:50:32.656Z,101065.47
2022-09-11T01:53:23.671Z,101067.75
2022-09-11T01:56:16.400Z,101071.97
2022-09-11T01:59:10.006Z,101071.97
2022-09-11T02:02:10.986Z,101079.94
2022-09-11T02:05:22.937Z,101082.03
2022-09-11T02:08:26.930Z,101083.72
2022-09-11T02:11:16.774Z,101089.16
2022-09-11T02:14:18.018Z,101078.69
2022-09-11T02:17:17.232Z,101089.59
2022-09-11T02:20:05.537Z,101090.63
2022-09-11T02:22:53.132Z,101092.31
2022-09-11T02:25:41.002Z,101087.91
2022-09-11T02:28:29.136Z,101096.53
2022-09-11T02:31:18.844Z,101096.56
2022-09-11T02:34:06.243Z,101095.72
2022-09-11T02:36:54.727Z,101097.56
2022-09-11T02:40:07.377Z,101104.75
2022-09-11T02:43:03.647Z,101102.59
2022-09-11T02:46:27.445Z,101100.94
2022-09-11T02:49:29.529Z,101096.72
2022-09-11T02:52:30.534Z,101091.03
2022-09-11T02:55:56.047Z,101099.66
2022-09-11T02:58:51.013Z,101113.09
2022-09-11T03:01:55.861Z,101114.38
2022-09-11T03:04:43.184Z,101105.56
2022-09-11T03:07:30.998Z,101111.88
2022-09-11T03:10:18.248Z,101116.91
2022-09-11T03:13:05.468Z,101120.06
2022-09-11T03:15:52.691Z,101112.94
2022-09-11T03:18:40.097Z,101116.91
2022-09-11T03:21:27.335Z,101115.66
2022-09-11T03:24:15.950Z,101115.44
2022-09-11T03:27:04.469Z,101113.78
2022-09-11T03:29:51.666Z,101112.28
2022-09-11T03:32:38.939Z,101116.25
2022-09-11T03:35:27.244Z,101106.84
2022-09-11T03:38:15.675Z,101114.16
2022-09-11T03:41:03.358Z,101118.19
2022-09-11T03:43:51.850Z,101115.66
2022-09-11T03:46:39.516Z,101131.19
2022-09-11T03:49:26.796Z,101118.19
2022-09-11T03:52:14.363Z,101125.31
2022-09-11T03:55:02.348Z,101118.41
2022-09-11T03:57:49.629Z,101126.41
2022-09-11T04:00:40.106Z,101134.13
2022-09-11T04:03:27.612Z,101121.56
2022-09-11T04:06:14.833Z,101128.03
2022-09-11T04:09:02.473Z,101121.97
2022-09-11T04:11:49.756Z,101123.25
2022-09-11T04:14:36.961Z,101125.78
2022-09-11T04:17:24.407Z,101134.19
2022-09-11T04:20:11.649Z,101133.13
2022-09-11T04:22:58.936Z,101135.63
2022-09-11T04:25:46.144Z,101133.75
2022-09-11T04:28:33.359Z,101132.28
2022-09-11T04:31:21.452Z,101134.22
2022-09-11T04:34:09.463Z,101132.13
2022-09-11T04:36:56.719Z,101130.41
2022-09-11T04:39:44.247Z,101134.19
2022-09-11T04:42:31.499Z,101139.63
2022-09-11T04:45:18.886Z,101143.00
2022-09-11T04:48:06.108Z,101126.84
2022-09-11T04:51:08.321Z,101150.75
2022-09-11T04:54:00.024Z,101147.19
2022-09-11T04:56:47.233Z,101153.09
2022-09-11T04:59:35.657Z,101147.66
2022-09-11T05:02:22.990Z,101151.41
2022-09-11T05:05:10.240Z,101152.66
2022-09-11T05:07:57.472Z,101155.16
2022-09-11T05:10:45.235Z,101161.25
2022-09-11T05:13:36.398Z,101156.00
2022-09-11T05:16:24.284Z,101158.09
2022-09-11T05:19:11.509Z,101164.03
2022-09-11T05:21:58.767Z,101174.28
2022-09-11T05:24:46.018Z,101168.22
2022-09-11T05:27:33.215Z,101179.56
2022-09-11T05:30:20.428Z,101183.53
2022-09-11T05:33:07.627Z,101180.41
2022-09-11T05:36:02.090Z,101184.78
2022-09-11T05:38:49.273Z,101192.56
2022-09-11T05:41:36.452Z,101195.09
2022-09-11T05:44:23.691Z,101207.03
2022-09-11T05:47:10.964Z,101206.84
2022-09-11T05:49:58.161Z,101209.78
2022-09-11T05:52:45.369Z,101212.69
2022-09-11T05:55:35.444Z,101216.72
2022-09-11T05:58:22.851Z,101217.75
2022-09-11T06:01:18.619Z,101218.63
2022-09-11T06:04:09.973Z,101229.06
2022-09-11T06:06:57.185Z,101235.81
2022-09-11T06:09:44.444Z,101237.06
2022-09-11T06:12:31.641Z,101251.78
2022-09-11T06:15:42.951Z,101245.88
2022-09-11T06:18:26.372Z,101250.50
2022-09-11T06:21:19.257Z,101262.72
2022-09-11T06:24:06.695Z,101257.22
2022-09-11T06:26:53.929Z,101261.22
2022-09-11T06:29:41.989Z,101262.72
2022-09-11T06:32:29.214Z,101259.97
2022-09-11T06:35:16.416Z,101250.50
2022-09-11T06:38:03.669Z,101262.72
2022-09-11T06:40:51.433Z,101258.06
2022-09-11T06:43:38.721Z,101268.78
2022-09-11T06:46:26.108Z,101271.09
2022-09-11T06:49:13.331Z,101276.78
2022-09-11T06:52:00.536Z,101281.56
2022-09-11T06:54:47.753Z,101279.09
2022-09-11T06:57:37.750Z,101273.63
2022-09-11T07:00:28.843Z,101279.09
2022-09-11T07:03:16.046Z,101280.34
2022-09-11T07:06:03.454Z,101283.25
2022-09-11T07:09:02.302Z,101283.47
2022-09-11T07:11:49.525Z,101283.06
2022-09-11T07:14:41.213Z,101276.13
2022-09-11T07:17:28.452Z,101281.38
2022-09-11T07:20:17.528Z,101275.50
2022-09-11T07:23:04.777Z,101283.28
2022-09-11T07:25:53.343Z,101285.78
2022-09-11T07:28:40.827Z,101284.53
2022-09-11T07:31:30.955Z,101283.25
2022-09-11T07:34:18.188Z,101294.59
2022-09-11T07:37:05.416Z,101294.59
2022-09-11T07:39:52.667Z,101294.59
2022-09-11T07:42:40.985Z,101290.59
2022-09-11T07:45:28.323Z,101291.00
2022-09-11T07:48:15.851Z,101287.84
2022-09-11T07:51:05.548Z,101294.72
2022-09-11T07:53:54.398Z,101293.22
2022-09-11T07:56:41.646Z,101299.06
2022-09-11T07:59:28.969Z,101299.25
2022-09-11T08:02:18.014Z,101298.13
2022-09-11T08:05:06.565Z,101289.47
2022-09-11T08:07:53.734Z,101301.50
2022-09-11T08:10:41.091Z,101303.59
2022-09-11T08:13:28.403Z,101300.41
2022-09-11T08:16:16.531Z,101304.50
2022-09-11T08:19:05.091Z,101302.81
2022-09-11T08:21:52.850Z,101308.72
2022-09-11T08:24:42.949Z,101314.19
2022-09-11T08:27:31.016Z,101301.00
2022-09-11T08:30:18.220Z,101325.53
2022-09-11T08:33:06.306Z,101325.94
2022-09-11T08:35:53.769Z,101333.28
2022-09-11T08:38:41.832Z,101331.00
2022-09-11T08:41:41.071Z,101336.44
2022-09-11T08:44:39.169Z,101346.31
2022-09-11T08:47:31.522Z,101346.38
2022-09-11T08:50:36.526Z,101343.63
2022-09-11T08:53:25.558Z,101349.94
2022-09-11T08:56:19.195Z,101346.56
2022-09-11T08:59:23.057Z,101357.34
2022-09-11T09:02:27.727Z,101355.03
2022-09-11T09:05:20.380Z,101359.66
2022-09-11T09:08:07.626Z,101361.56
2022-09-11T09:11:14.248Z,101330.88
2022-09-11T09:14:05.746Z,101365.13
2022-09-11T09:17:01.787Z,101369.78
2022-09-11T09:20:01.448Z,101373.09
2022-09-11T09:23:02.909Z,101374.38
2022-09-11T09:25:53.058Z,101366.59
2022-09-11T09:28:46.871Z,101377.53
2022-09-11T09:31:38.560Z,101379.38
2022-09-11T09:34:31.020Z,101377.69
2022-09-11T09:37:21.853Z,101380.28
2022-09-11T09:40:10.752Z,101385.25
2022-09-11T09:43:13.825Z,101391.69
2022-09-11T09:46:15.925Z,101387.19
2022-09-11T09:49:03.170Z,101388.81
2022-09-11T09:51:51.692Z,101378.91
2022-09-11T09:54:39.430Z,101377.22
2022-09-11T09:57:37.250Z,101378.00
2022-09-11T10:00:24.492Z,101384.34
2022-09-11T10:03:23.331Z,101377.91
2022-09-11T10:06:10.643Z,101379.06
2022-09-11T10:09:01.414Z,101389.31
2022-09-11T10:12:02.353Z,101385.53
2022-09-11T10:15:01.929Z,101384.22
2022-09-11T10:17:50.333Z,101393.16
2022-09-11T10:20:38.219Z,101382.03
2022-09-11T10:23:27.455Z,101377.38
2022-09-11T10:26:18.258Z,101382.44
2022-09-11T10:29:15.651Z,101386.28
2022-09-11T10:32:03.873Z,101378.19
2022-09-11T10:34:52.949Z,101374.66
2022-09-11T10:37:40.217Z,101373.69
2022-09-11T10:40:27.641Z,101372.16
2022-09-11T10:43:31.708Z,101372.00
2022-09-11T10:46:18.969Z,101373.69
2022-09-11T10:49:06.098Z,101367.47
2022-09-11T10:52:08.468Z,101374.97
2022-09-11T10:55:15.122Z,101378.91
2022-09-11T10:58:12.401Z,101370.81
2022-09-11T11:00:59.661Z,101379.53
2022-09-11T11:03:46.959Z,101368.91
2022-09-11T11:06:49.716Z,101364.13
2022-09-11T11:10:02.781Z,101360.84
2022-09-11T11:13:38.846Z,101360.28
2022-09-11T11:16:50.331Z,101359.19
2022-09-11T11:19:56.848Z,101358.72
2022-09-11T11:23:03.556Z,101359.94
2022-09-11T11:25:57.789Z,101366.28
2022-09-11T11:29:14.333Z,101360.34
2022-09-11T11:32:08.422Z,101359.25
2022-09-11T11:35:26.423Z,101351.88
2022-09-11T11:38:20.214Z,101358.28
2022-09-11T11:41:15.086Z,101356.00
2022-09-11T11:44:06.271Z,101351.28
2022-09-11T11:46:59.293Z,101352.50
2022-09-11T11:50:15.173Z,101355.19
2022-09-11T11:52:56.879Z,101359.69
2022-09-11T11:55:27.492Z,101356.78
2022-09-11T11:58:04.416Z,101354.34
2022-09-11T12:00:39.142Z,101349.63
2022-09-11T12:03:18.114Z,101352.69
2022-09-11T12:05:45.080Z,101356.56
2022-09-11T12:08:16.566Z,101357.28
2022-09-11T12:10:56.245Z,101347.81
2022-09-11T12:13:30.797Z,101354.22
2022-09-11T12:16:02.543Z,101350.03
2022-09-11T12:18:29.629Z,101356.63
2022-09-11T12:21:24.512Z,101355.00
2022-09-11T12:23:56.989Z,101348.94
2022-09-11T12:26:25.751Z,101336.75
2022-09-11T12:29:18.837Z,101348.22
2022-09-11T12:31:51.545Z,101343.94
2022-09-11T12:34:23.205Z,101337.22
2022-09-11T12:36:57.636Z,101330.53
2022-09-11T12:39:34.674Z,101336.03
2022-09-11T12:42:30.432Z,101336.41
2022-09-11T12:44:59.635Z,101337.97
2022-09-11T12:47:40.113Z,101340.41
2022-09-11T12:50:13.146Z,101335.81
2022-09-11T12:52:47.668Z,101330.19
2022-09-11T12:55:43.297Z,101331.09
2022-09-11T12:58:18.866Z,101316.03
2022-09-11T13:00:49.548Z,101320.09
2022-09-11T13:03:23.357Z,101324.28
2022-09-11T13:06:11.757Z,101302.78
2022-09-11T13:09:01.784Z,101307.91
2022-09-11T13:11:46.393Z,101295.28
2022-09-11T13:14:28.216Z,101295.91
2022-09-11T13:16:56.928Z,101294.25
2022-09-11T13:19:35.742Z,101286.97
2022-09-11T13:22:20.468Z,101282.34
2022-09-11T13:24:48.308Z,101287.22
2022-09-11T13:27:26.483Z,101284.13
2022-09-11T13:29:56.289Z,101279.34
2022-09-11T13:32:23.704Z,101279.69
2022-09-11T13:35:01.310Z,101257.63
2022-09-11T13:37:41.267Z,101280.75
2022-09-11T13:40:19.840Z,101282.13
2022-09-11T13:42:48.783Z,101281.28
2022-09-11T13:45:18.587Z,101270.78
2022-09-11T13:47:45.866Z,101277.34
2022-09-11T13:50:16.114Z,101273.25
2022-09-11T13:52:45.613Z,101274.09
2022-09-11T13:55:20.683Z,101273.53
2022-09-11T13:58:02.086Z,101271.00
2022-09-11T14:00:41.080Z,101270.53
2022-09-11T14:03:31.755Z,101269.34
2022-09-11T14:06:15.865Z,101265.84
2022-09-11T14:08:49.933Z,101274.59
2022-09-11T14:11:33.354Z,101265.75
2022-09-11T14:14:13.963Z,101268.34
2022-09-11T14:16:52.689Z,101263.22
2022-09-11T14:19:22.835Z,101270.06
2022-09-11T14:21:51.250Z,101267.41
2022-09-11T14:24:32.963Z,101267.16
2022-09-11T14:27:01.903Z,101255.31
2022-09-11T14:29:31.445Z,101251.53
2022-09-11T14:32:16.729Z,101253.78
2022-09-11T14:34:43.618Z,101254.53
2022-09-11T14:37:16.595Z,101250.44
2022-09-11T14:39:50.012Z,101244.81
2022-09-11T14:42:21.063Z,101258.00
2022-09-11T14:44:48.175Z,101248.91
2022-09-11T14:47:19.856Z,101244.22
2022-09-11T14:49:46.988Z,101248.16
2022-09-11T14:52:16.519Z,101248.03
2022-09-11T14:54:43.539Z,101246.75
2022-09-11T14:57:15.255Z,101237.44
2022-09-11T14:59:45.658Z,101235.94
2022-09-11T15:02:14.802Z,101231.63
2022-09-11T15:04:41.929Z,101225.38
2022-09-11T15:07:10.958Z,101232.34
2022-09-11T15:09:38.171Z,101230.16
2022-09-11T15:12:05.988Z,101212.59
2022-09-11T15:14:55.078Z,101214.41
2022-09-11T15:17:20.265Z,101221.59
2022-09-11T15:19:49.614Z,101208.34
2022-09-11T15:22:17.445Z,101207.75
2022-09-11T15:24:44.345Z,101205.97
2022-09-11T15:27:11.276Z,101205.84
2022-09-11T15:29:39.684Z,101214.84
2022-09-11T15:32:07.515Z,101190.94
2022-09-11T15:34:34.649Z,101211.50
2022-09-11T15:37:02.490Z,101215.81
2022-09-11T15:39:29.473Z,101196.91
2022-09-11T15:41:56.486Z,101209.22
2022-09-11T15:44:25.959Z,101208.50
2022-09-11T15:46:55.117Z,101214.72
2022-09-11T15:49:24.065Z,101194.78
2022-09-11T15:51:53.988Z,101198.59
2022-09-11T15:54:23.115Z,101199.09
2022-09-11T15:56:51.408Z,101201.81
2022-09-11T15:59:18.484Z,101196.34
2022-09-11T16:01:45.649Z,101193.59
2022-09-11T16:04:15.234Z,101199.09
2022-09-11T16:06:43.657Z,101193.44
2022-09-11T16:09:16.408Z,101198.94
2022-09-11T16:11:43.863Z,101200.88
2022-09-11T16:14:17.699Z,101193.53
2022-09-11T16:16:47.029Z,101192.94
2022-09-11T16:19:15.578Z,101195.91
2022-09-11T16:21:43.037Z,101191.03
2022-09-11T16:24:11.506Z,101195.81
2022-09-11T16:26:38.623Z,101187.34
2022-09-11T16:29:11.507Z,101185.28
2022-09-11T16:31:39.449Z,101192.81
2022-09-11T16:34:07.108Z,101183.63
2022-09-11T16:36:41.722Z,101191.88
2022-09-11T16:39:11.839Z,101187.94
2022-09-11T16:41:39.192Z,101184.09
2022-09-11T16:44:08.467Z,101191.03
2022-09-11T16:46:37.068Z,101186.84
2022-09-11T16:49:05.786Z,101183.50
2022-09-11T16:51:34.032Z,101186.13
2022-09-11T16:54:03.423Z,101158.03
2022-09-11T16:56:30.886Z,101167.69
2022-09-11T16:58:58.293Z,101185.03
2022-09-11T17:01:27.295Z,101175.59
2022-09-11T17:03:57.130Z,101182.03
2022-09-11T17:06:29.870Z,101179.53
2022-09-11T17:08:59.657Z,101178.69
2022-09-11T17:11:28.851Z,101178.31
2022-09-11T17:13:55.852Z,101181.31
2022-09-11T17:16:26.287Z,101182.63
2022-09-11T17:18:56.575Z,101173.41
2022-09-11T17:21:24.955Z,101181.63
2022-09-11T17:23:56.186Z,101183.78
2022-09-11T17:26:32.541Z,101184.03
2022-09-11T17:29:03.617Z,101185.34
2022-09-11T17:31:31.520Z,101174.81
2022-09-11T17:33:58.644Z,101169.41
2022-09-11T17:36:25.577Z,101179.56
2022-09-11T17:38:52.619Z,101169.53
2022-09-11T17:41:20.873Z,101168.34
2022-09-11T17:43:48.990Z,101177.25
2022-09-11T17:46:18.684Z,101182.56
2022-09-11T17:48:46.496Z,101169.41
2022-09-11T17:51:20.005Z,101170.47
2022-09-11T17:53:52.270Z,101176.88
2022-09-11T17:56:30.617Z,101177.81
2022-09-11T17:58:59.652Z,101179.19
2022-09-11T18:01:28.711Z,101186.66
2022-09-11T18:03:58.137Z,101186.97
2022-09-11T18:06:36.529Z,101193.97
2022-09-11T18:09:21.630Z,101181.63
2022-09-11T18:11:50.901Z,101182.41
2022-09-11T18:14:18.713Z,101185.59
2022-09-11T18:16:47.268Z,101190.44
2022-09-11T18:19:16.039Z,101197.88
2022-09-11T18:21:45.605Z,101196.44
2022-09-11T18:24:19.861Z,101209.13
2022-09-11T18:26:50.085Z,101192.81
2022-09-11T18:29:20.131Z,101198.44
2022-09-11T18:31:50.165Z,101203.34
2022-09-11T18:34:20.253Z,101200.03
2022-09-11T18:36:47.901Z,101194.59
2022-09-11T18:39:17.654Z,101202.44
2022-09-11T18:41:46.185Z,101194.28
2022-09-11T18:44:19.617Z,101189.09
2022-09-11T18:46:47.806Z,101192.72
2022-09-11T18:49:15.668Z,101196.31
2022-09-11T18:51:43.037Z,101196.97
2022-09-11T18:54:14.742Z,101185.69
2022-09-11T18:56:42.969Z,101185.69
2022-09-11T18:59:11.105Z,101189.44
2022-09-11T19:01:41.186Z,101192.41
2022-09-11T19:04:10.723Z,101189.09
2022-09-11T19:06:38.658Z,101194.34
2022-09-11T19:09:10.001Z,101189.75
2022-09-11T19:11:37.482Z,101196.09
2022-09-11T19:14:06.939Z,101187.88
2022-09-11T19:16:36.164Z,101197.56
2022-09-11T19:19:03.593Z,101190.84
2022-09-11T19:21:30.769Z,101192.59
2022-09-11T19:24:00.611Z,101183.81
2022-09-11T19:26:31.453Z,101190.97
2022-09-11T19:29:00.323Z,101192.88
2022-09-11T19:31:29.790Z,101193.47
2022-09-11T19:34:00.709Z,101197.53
2022-09-11T19:36:33.968Z,101202.81
2022-09-11T19:39:01.762Z,101205.31
2022-09-11T19:41:34.474Z,101204.94
2022-09-11T19:44:03.414Z,101204.31
2022-09-11T19:46:32.339Z,101205.38
2022-09-11T19:49:06.274Z,101205.59
2022-09-11T19:51:35.605Z,101211.50
2022-09-11T19:54:03.881Z,101213.00
2022-09-11T19:56:33.231Z,101210.09
2022-09-11T19:59:00.825Z,101215.34
2022-09-11T20:01:29.962Z,101210.53
2022-09-11T20:03:58.222Z,101213.47
2022-09-11T20:06:29.004Z,101208.44
2022-09-11T20:09:19.757Z,101207.81
2022-09-11T20:11:45.202Z,101203.22
2022-09-11T20:14:30.926Z,101198.00
2022-09-11T20:16:58.165Z,101207.41
2022-09-11T20:19:25.162Z,101203.63
2022-09-11T20:21:52.182Z,101208.91
2022-09-11T20:24:19.707Z,101200.94
2022-09-11T20:26:46.771Z,101203.47
2022-09-11T20:29:15.489Z,101205.16
2022-09-11T20:31:46.886Z,101213.34
2022-09-11T20:34:16.565Z,101212.50
2022-09-11T20:36:43.544Z,101209.38
2022-09-11T20:39:28.470Z,101207.91
2022-09-11T20:41:55.462Z,101199.28
2022-09-11T20:44:22.721Z,101199.50
2022-09-11T20:46:49.927Z,101197.63
2022-09-11T20:49:16.919Z,101190.47
2022-09-11T20:51:44.006Z,101206.03
2022-09-11T20:54:10.972Z,101191.34
2022-09-11T20:56:38.937Z,101194.69
2022-09-11T20:59:06.220Z,101184.19
2022-09-11T21:01:34.273Z,101193.84
2022-09-11T21:04:03.069Z,101193.84
2022-09-11T21:06:48.658Z,101188.00
2022-09-11T21:09:15.937Z,101185.66
2022-09-11T21:11:43.605Z,101179.59
2022-09-11T21:14:15.464Z,101184.19
2022-09-11T21:19:35.120Z,101183.16
2022-09-11T21:22:02.094Z,101177.28
2022-09-11T21:24:28.997Z,101177.91
2022-09-11T21:27:14.558Z,101180.63
2022-09-11T21:29:41.825Z,101189.25
2022-09-11T21:32:08.790Z,101173.72
2022-09-11T21:34:35.673Z,101173.72
2022-09-11T21:37:22.213Z,101166.56
2022-09-11T21:39:49.280Z,101170.56
2022-09-11T21:42:16.254Z,101171.63
2022-09-11T21:44:43.281Z,101176.66
2022-09-11T21:47:10.621Z,101169.72
2022-09-11T21:49:38.677Z,101170.34
2022-09-11T21:52:05.674Z,101172.03
2022-09-11T21:54:32.563Z,101177.06
2022-09-11T21:56:59.525Z,101177.06
2022-09-11T21:59:26.560Z,101174.97
2022-09-11T22:02:12.016Z,101173.91
2022-09-11T22:04:39.061Z,101181.63
2022-09-11T22:07:06.472Z,101177.25
2022-09-11T22:09:33.590Z,101174.91
2022-09-11T22:12:00.744Z,101174.06
2022-09-11T22:14:28.603Z,101173.22
2022-09-11T22:16:55.580Z,101179.28
2022-09-11T22:19:22.549Z,101179.91
2022-09-11T22:21:49.848Z,101181.13
2022-09-11T22:24:17.405Z,101176.56
2022-09-11T22:26:44.437Z,101170.69
2022-09-11T22:29:29.741Z,101164.81
2022-09-11T22:31:57.261Z,101166.09
2022-09-11T22:34:24.801Z,101168.19
2022-09-11T22:36:51.729Z,101162.72
2022-09-11T22:39:37.390Z,101154.75
2022-09-11T22:42:04.622Z,101160.63
2022-09-11T22:44:31.600Z,101160.22
2022-09-11T22:46:58.569Z,101157.66
2022-09-11T22:49:25.501Z,101151.78
2022-09-11T22:51:52.426Z,101145.47
2022-09-11T22:54:19.516Z,101150.50
2022-09-11T22:56:46.419Z,101154.09
2022-09-11T22:59:13.344Z,101150.09
2022-09-11T23:01:40.376Z,101149.28
2022-09-11T23:04:07.405Z,101120.75
2022-09-11T23:06:52.921Z,101152.22
2022-09-11T23:09:37.155Z,101156.81
2022-09-11T23:12:04.973Z,101143.34
2022-09-11T23:14:32.616Z,101153.84
2022-09-11T23:16:59.711Z,101138.53
2022-09-11T23:19:28.212Z,101143.56
2022-09-11T23:21:55.192Z,101148.41
2022-09-11T23:24:22.085Z,101141.28
2022-09-11T23:26:49.004Z,101142.09
2022-09-11T23:29:15.910Z,101152.19
2022-09-11T23:31:44.167Z,101149.63
2022-09-11T23:34:29.654Z,101142.25
2022-09-11T23:36:56.646Z,101145.41
2022-09-11T23:39:23.589Z,101149.56
2022-09-11T23:41:50.491Z,101153.53
2022-09-11T23:44:17.888Z,101139.09
2022-09-11T23:46:44.843Z,101108.25
2022-09-11T23:49:12.636Z,101138.47
2022-09-11T23:51:39.637Z,101137.44
2022-09-11T23:54:07.025Z,101135.75
2022-09-11T23:56:33.929Z,101136.34
2022-09-11T23:59:00.877Z,101133.63
